sensor_id;sensor_type;location;lat;lon;timestamp;P1;durP1;ratioP1;P2;durP2;ratioP2
30127;SDS011;16942;53.196;6.592;2022-08-03T00:00:00;6.20;;;2.60;;
30127;SDS011;16942;53.196;6.592;2022-08-03T00:02:26;7.00;;;2.40;;
30127;SDS011;16942;53.196;6.592;2022-08-03T00:04:52;5.63;;;2.10;;
30127;SDS011;16942;53.196;6.592;2022-08-03T00:07:18;5.20;;;1.90;;
30127;SDS011;16942;53.196;6.592;2022-08-03T00:09:44;8.00;;;2.55;;
30127;SDS011;16942;53.196;6.592;2022-08-03T00:12:10;8.03;;;2.50;;
30127;SDS011;16942;53.196;6.592;2022-08-03T00:14:36;9.53;;;2.33;;
30127;SDS011;16942;53.196;6.592;2022-08-03T00:17:02;4.60;;;2.60;;
30127;SDS011;16942;53.196;6.592;2022-08-03T00:19:28;9.50;;;2.77;;
30127;SDS011;16942;53.196;6.592;2022-08-03T00:21:55;8.47;;;2.00;;
30127;SDS011;16942;53.196;6.592;2022-08-03T00:24:21;10.17;;;2.70;;
30127;SDS011;16942;53.196;6.592;2022-08-03T00:26:47;8.83;;;2.50;;
30127;SDS011;16942;53.196;6.592;2022-08-03T00:29:13;9.23;;;2.40;;
30127;SDS011;16942;53.196;6.592;2022-08-03T00:31:39;6.50;;;2.20;;
30127;SDS011;16942;53.196;6.592;2022-08-03T00:34:05;10.30;;;2.73;;
30127;SDS011;16942;53.196;6.592;2022-08-03T00:36:31;9.73;;;2.53;;
30127;SDS011;16942;53.196;6.592;2022-08-03T00:38:57;7.77;;;2.40;;
30127;SDS011;16942;53.196;6.592;2022-08-03T00:41:23;12.60;;;3.10;;
30127;SDS011;16942;53.196;6.592;2022-08-03T00:43:49;13.60;;;2.50;;
30127;SDS011;16942;53.196;6.592;2022-08-03T00:46:15;10.57;;;2.53;;
30127;SDS011;16942;53.196;6.592;2022-08-03T00:48:41;4.50;;;2.00;;
30127;SDS011;16942;53.196;6.592;2022-08-03T00:51:07;7.10;;;2.80;;
30127;SDS011;16942;53.196;6.592;2022-08-03T00:53:33;8.27;;;2.60;;
30127;SDS011;16942;53.196;6.592;2022-08-03T00:56:00;7.23;;;2.47;;
30127;SDS011;16942;53.196;6.592;2022-08-03T00:58:26;9.93;;;3.03;;
30127;SDS011;16942;53.196;6.592;2022-08-03T01:00:52;9.73;;;2.70;;
30127;SDS011;16942;53.196;6.592;2022-08-03T01:03:18;11.70;;;3.00;;
30127;SDS011;16942;53.196;6.592;2022-08-03T01:13:37;6.43;;;2.77;;
30127;SDS011;16942;53.196;6.592;2022-08-03T01:16:23;9.57;;;2.70;;
30127;SDS011;16942;53.196;6.592;2022-08-03T01:18:54;9.83;;;3.07;;
30127;SDS011;16942;53.196;6.592;2022-08-03T01:32:02;4.67;;;2.20;;
30127;SDS011;16942;53.196;6.592;2022-08-03T01:34:31;6.47;;;2.40;;
30127;SDS011;16942;53.196;6.592;2022-08-03T01:36:58;9.03;;;2.50;;
30127;SDS011;16942;53.196;6.592;2022-08-03T01:39:26;9.60;;;2.27;;
30127;SDS011;16942;53.196;6.592;2022-08-03T01:41:55;4.60;;;1.80;;
30127;SDS011;16942;53.196;6.592;2022-08-03T01:44:28;7.57;;;1.87;;
30127;SDS011;16942;53.196;6.592;2022-08-03T01:46:58;8.93;;;1.90;;
30127;SDS011;16942;53.196;6.592;2022-08-03T01:49:25;7.27;;;2.27;;
30127;SDS011;16942;53.196;6.592;2022-08-03T01:51:52;5.73;;;1.83;;
30127;SDS011;16942;53.196;6.592;2022-08-03T01:54:18;7.47;;;2.33;;
30127;SDS011;16942;53.196;6.592;2022-08-03T01:56:45;4.70;;;1.70;;
30127;SDS011;16942;53.196;6.592;2022-08-03T01:59:13;5.83;;;2.60;;
30127;SDS011;16942;53.196;6.592;2022-08-03T02:01:41;7.43;;;2.10;;
30127;SDS011;16942;53.196;6.592;2022-08-03T02:04:08;5.47;;;2.10;;
30127;SDS011;16942;53.196;6.592;2022-08-03T02:06:34;8.80;;;2.17;;
30127;SDS011;16942;53.196;6.592;2022-08-03T02:09:01;8.83;;;2.40;;
30127;SDS011;16942;53.196;6.592;2022-08-03T02:11:29;5.13;;;1.60;;
30127;SDS011;16942;53.196;6.592;2022-08-03T02:13:56;5.40;;;2.50;;
30127;SDS011;16942;53.196;6.592;2022-08-03T02:16:23;4.60;;;1.50;;
30127;SDS011;16942;53.196;6.592;2022-08-03T02:18:51;10.37;;;1.87;;
30127;SDS011;16942;53.196;6.592;2022-08-03T02:21:17;5.27;;;1.90;;
30127;SDS011;16942;53.196;6.592;2022-08-03T02:23:43;12.37;;;2.57;;
30127;SDS011;16942;53.196;6.592;2022-08-03T02:26:13;5.67;;;1.77;;
30127;SDS011;16942;53.196;6.592;2022-08-03T02:28:42;7.93;;;3.07;;
30127;SDS011;16942;53.196;6.592;2022-08-03T02:31:12;7.83;;;1.77;;
30127;SDS011;16942;53.196;6.592;2022-08-03T02:33:40;6.20;;;1.70;;
30127;SDS011;16942;53.196;6.592;2022-08-03T02:36:07;5.47;;;1.97;;
30127;SDS011;16942;53.196;6.592;2022-08-03T02:38:35;9.60;;;2.17;;
30127;SDS011;16942;53.196;6.592;2022-08-03T02:41:03;7.13;;;1.80;;
30127;SDS011;16942;53.196;6.592;2022-08-03T02:43:29;6.37;;;1.90;;
30127;SDS011;16942;53.196;6.592;2022-08-03T02:45:56;6.23;;;1.67;;
30127;SDS011;16942;53.196;6.592;2022-08-03T02:48:24;10.90;;;3.33;;
30127;SDS011;16942;53.196;6.592;2022-08-03T02:50:52;5.60;;;2.10;;
30127;SDS011;16942;53.196;6.592;2022-08-03T02:53:19;3.83;;;1.87;;
30127;SDS011;16942;53.196;6.592;2022-08-03T02:55:46;13.00;;;2.23;;
30127;SDS011;16942;53.196;6.592;2022-08-03T02:58:13;6.20;;;1.80;;
30127;SDS011;16942;53.196;6.592;2022-08-03T03:00:40;8.53;;;1.90;;
30127;SDS011;16942;53.196;6.592;2022-08-03T03:03:09;9.27;;;2.20;;
30127;SDS011;16942;53.196;6.592;2022-08-03T03:05:35;9.33;;;2.57;;
30127;SDS011;16942;53.196;6.592;2022-08-03T03:08:02;6.63;;;1.90;;
30127;SDS011;16942;53.196;6.592;2022-08-03T03:10:28;5.80;;;2.00;;
30127;SDS011;16942;53.196;6.592;2022-08-03T03:12:55;6.93;;;2.03;;
30127;SDS011;16942;53.196;6.592;2022-08-03T03:15:25;6.90;;;1.83;;
30127;SDS011;16942;53.196;6.592;2022-08-03T03:17:52;11.03;;;2.10;;
30127;SDS011;16942;53.196;6.592;2022-08-03T03:20:19;7.70;;;2.20;;
30127;SDS011;16942;53.196;6.592;2022-08-03T03:22:47;8.73;;;2.50;;
30127;SDS011;16942;53.196;6.592;2022-08-03T03:25:14;4.97;;;2.83;;
30127;SDS011;16942;53.196;6.592;2022-08-03T03:27:40;10.03;;;2.37;;
30127;SDS011;16942;53.196;6.592;2022-08-03T03:30:06;7.60;;;2.10;;
30127;SDS011;16942;53.196;6.592;2022-08-03T03:32:32;5.90;;;2.33;;
30127;SDS011;16942;53.196;6.592;2022-08-03T03:35:00;10.50;;;2.47;;
30127;SDS011;16942;53.196;6.592;2022-08-03T03:37:27;17.23;;;2.60;;
30127;SDS011;16942;53.196;6.592;2022-08-03T03:39:53;5.57;;;1.87;;
30127;SDS011;16942;53.196;6.592;2022-08-03T03:42:19;11.13;;;2.30;;
30127;SDS011;16942;53.196;6.592;2022-08-03T03:44:45;7.60;;;2.13;;
30127;SDS011;16942;53.196;6.592;2022-08-03T03:47:12;9.90;;;2.60;;
30127;SDS011;16942;53.196;6.592;2022-08-03T03:49:38;8.33;;;2.60;;
30127;SDS011;16942;53.196;6.592;2022-08-03T03:52:04;8.93;;;2.23;;
30127;SDS011;16942;53.196;6.592;2022-08-03T03:54:40;9.73;;;2.33;;
30127;SDS011;16942;53.196;6.592;2022-08-03T03:57:07;11.77;;;2.57;;
30127;SDS011;16942;53.196;6.592;2022-08-03T03:59:36;10.57;;;2.30;;
30127;SDS011;16942;53.196;6.592;2022-08-03T04:02:03;11.37;;;3.20;;
30127;SDS011;16942;53.196;6.592;2022-08-03T04:04:30;7.27;;;3.10;;
30127;SDS011;16942;53.196;6.592;2022-08-03T04:07:15;10.03;;;2.60;;
30127;SDS011;16942;53.196;6.592;2022-08-03T04:10:00;6.77;;;2.30;;
30127;SDS011;16942;53.196;6.592;2022-08-03T04:12:46;9.80;;;3.37;;
30127;SDS011;16942;53.196;6.592;2022-08-03T04:15:13;7.73;;;2.27;;
30127;SDS011;16942;53.196;6.592;2022-08-03T04:17:40;5.77;;;2.57;;
30127;SDS011;16942;53.196;6.592;2022-08-03T04:20:08;6.57;;;2.33;;
30127;SDS011;16942;53.196;6.592;2022-08-03T04:22:34;8.20;;;3.43;;
30127;SDS011;16942;53.196;6.592;2022-08-03T04:25:04;8.70;;;2.40;;
30127;SDS011;16942;53.196;6.592;2022-08-03T04:27:33;7.43;;;2.57;;
30127;SDS011;16942;53.196;6.592;2022-08-03T04:30:02;6.87;;;2.80;;
30127;SDS011;16942;53.196;6.592;2022-08-03T04:32:29;6.50;;;2.60;;
30127;SDS011;16942;53.196;6.592;2022-08-03T04:34:56;5.80;;;2.50;;
30127;SDS011;16942;53.196;6.592;2022-08-03T04:39:48;9.53;;;2.87;;
30127;SDS011;16942;53.196;6.592;2022-08-03T04:42:14;12.17;;;3.13;;
30127;SDS011;16942;53.196;6.592;2022-08-03T04:44:41;5.17;;;2.80;;
30127;SDS011;16942;53.196;6.592;2022-08-03T04:47:09;11.10;;;2.83;;
30127;SDS011;16942;53.196;6.592;2022-08-03T04:49:35;12.03;;;2.57;;
30127;SDS011;16942;53.196;6.592;2022-08-03T04:52:02;10.27;;;3.37;;
30127;SDS011;16942;53.196;6.592;2022-08-03T04:54:29;13.23;;;3.53;;
30127;SDS011;16942;53.196;6.592;2022-08-03T04:56:58;6.60;;;3.30;;
30127;SDS011;16942;53.196;6.592;2022-08-03T04:59:24;8.13;;;3.17;;
30127;SDS011;16942;53.196;6.592;2022-08-03T05:01:50;7.60;;;2.80;;
30127;SDS011;16942;53.196;6.592;2022-08-03T05:04:16;12.87;;;2.87;;
30127;SDS011;16942;53.196;6.592;2022-08-03T05:06:45;9.77;;;2.30;;
30127;SDS011;16942;53.196;6.592;2022-08-03T05:09:11;16.47;;;3.00;;
30127;SDS011;16942;53.196;6.592;2022-08-03T05:11:37;5.50;;;1.97;;
30127;SDS011;16942;53.196;6.592;2022-08-03T05:14:03;9.57;;;2.60;;
30127;SDS011;16942;53.196;6.592;2022-08-03T05:16:29;8.57;;;2.77;;
30127;SDS011;16942;53.196;6.592;2022-08-03T05:18:55;8.60;;;2.70;;
30127;SDS011;16942;53.196;6.592;2022-08-03T05:21:21;11.53;;;3.00;;
30127;SDS011;16942;53.196;6.592;2022-08-03T05:23:47;7.13;;;3.07;;
30127;SDS011;16942;53.196;6.592;2022-08-03T05:26:13;10.53;;;3.27;;
30127;SDS011;16942;53.196;6.592;2022-08-03T05:28:40;15.27;;;2.70;;
30127;SDS011;16942;53.196;6.592;2022-08-03T05:31:06;10.73;;;3.17;;
30127;SDS011;16942;53.196;6.592;2022-08-03T05:33:32;12.07;;;2.93;;
30127;SDS011;16942;53.196;6.592;2022-08-03T05:35:58;9.93;;;2.80;;
30127;SDS011;16942;53.196;6.592;2022-08-03T05:38:25;9.47;;;2.77;;
30127;SDS011;16942;53.196;6.592;2022-08-03T05:40:51;15.10;;;2.90;;
30127;SDS011;16942;53.196;6.592;2022-08-03T05:43:17;8.03;;;2.50;;
30127;SDS011;16942;53.196;6.592;2022-08-03T05:45:43;9.20;;;2.80;;
30127;SDS011;16942;53.196;6.592;2022-08-03T05:48:09;11.70;;;3.00;;
30127;SDS011;16942;53.196;6.592;2022-08-03T05:50:35;14.10;;;3.47;;
30127;SDS011;16942;53.196;6.592;2022-08-03T05:53:01;8.23;;;2.50;;
30127;SDS011;16942;53.196;6.592;2022-08-03T05:55:28;12.00;;;4.07;;
30127;SDS011;16942;53.196;6.592;2022-08-03T05:57:54;10.30;;;2.67;;
30127;SDS011;16942;53.196;6.592;2022-08-03T06:00:20;11.77;;;3.73;;
30127;SDS011;16942;53.196;6.592;2022-08-03T06:02:46;13.90;;;2.70;;
30127;SDS011;16942;53.196;6.592;2022-08-03T06:05:12;11.83;;;2.73;;
30127;SDS011;16942;53.196;6.592;2022-08-03T06:07:39;13.00;;;2.70;;
30127;SDS011;16942;53.196;6.592;2022-08-03T06:10:06;13.37;;;3.20;;
30127;SDS011;16942;53.196;6.592;2022-08-03T06:12:33;10.40;;;3.80;;
30127;SDS011;16942;53.196;6.592;2022-08-03T06:15:05;9.17;;;3.10;;
30127;SDS011;16942;53.196;6.592;2022-08-03T06:17:31;17.10;;;3.13;;
30127;SDS011;16942;53.196;6.592;2022-08-03T06:19:57;10.20;;;2.70;;
30127;SDS011;16942;53.196;6.592;2022-08-03T06:22:23;16.70;;;3.30;;
30127;SDS011;16942;53.196;6.592;2022-08-03T06:24:50;11.57;;;3.30;;
30127;SDS011;16942;53.196;6.592;2022-08-03T06:27:17;7.83;;;2.53;;
30127;SDS011;16942;53.196;6.592;2022-08-03T06:29:43;8.43;;;3.93;;
30127;SDS011;16942;53.196;6.592;2022-08-03T06:32:09;13.70;;;3.13;;
30127;SDS011;16942;53.196;6.592;2022-08-03T06:34:35;12.23;;;4.00;;
30127;SDS011;16942;53.196;6.592;2022-08-03T06:37:01;11.27;;;2.80;;
30127;SDS011;16942;53.196;6.592;2022-08-03T06:39:27;15.50;;;3.20;;
30127;SDS011;16942;53.196;6.592;2022-08-03T06:41:53;15.37;;;3.43;;
30127;SDS011;16942;53.196;6.592;2022-08-03T06:44:19;10.30;;;3.00;;
30127;SDS011;16942;53.196;6.592;2022-08-03T06:46:45;8.10;;;2.80;;
30127;SDS011;16942;53.196;6.592;2022-08-03T06:49:11;13.10;;;4.83;;
30127;SDS011;16942;53.196;6.592;2022-08-03T06:51:37;11.33;;;3.53;;
30127;SDS011;16942;53.196;6.592;2022-08-03T06:54:04;16.20;;;3.87;;
30127;SDS011;16942;53.196;6.592;2022-08-03T06:56:32;14.50;;;3.40;;
30127;SDS011;16942;53.196;6.592;2022-08-03T06:58:58;11.90;;;3.50;;
30127;SDS011;16942;53.196;6.592;2022-08-03T07:01:25;8.87;;;3.23;;
30127;SDS011;16942;53.196;6.592;2022-08-03T07:03:51;17.42;;;3.10;;
30127;SDS011;16942;53.196;6.592;2022-08-03T07:06:18;15.30;;;3.30;;
30127;SDS011;16942;53.196;6.592;2022-08-03T07:08:45;13.83;;;3.40;;
30127;SDS011;16942;53.196;6.592;2022-08-03T07:11:11;14.73;;;3.50;;
30127;SDS011;16942;53.196;6.592;2022-08-03T07:13:37;13.77;;;3.33;;
30127;SDS011;16942;53.196;6.592;2022-08-03T07:16:05;17.70;;;3.80;;
30127;SDS011;16942;53.196;6.592;2022-08-03T07:18:31;14.40;;;3.20;;
30127;SDS011;16942;53.196;6.592;2022-08-03T07:20:58;13.85;;;3.38;;
30127;SDS011;16942;53.196;6.592;2022-08-03T07:23:32;14.13;;;3.30;;
30127;SDS011;16942;53.196;6.592;2022-08-03T07:25:58;13.35;;;3.25;;
30127;SDS011;16942;53.196;6.592;2022-08-03T07:28:25;13.60;;;2.78;;
30127;SDS011;16942;53.196;6.592;2022-08-03T07:31:01;13.43;;;3.72;;
30127;SDS011;16942;53.196;6.592;2022-08-03T07:33:27;14.27;;;2.78;;
30127;SDS011;16942;53.196;6.592;2022-08-03T07:35:53;7.05;;;3.10;;
30127;SDS011;16942;53.196;6.592;2022-08-03T07:38:19;17.05;;;3.47;;
30127;SDS011;16942;53.196;6.592;2022-08-03T07:40:45;10.35;;;3.72;;
30127;SDS011;16942;53.196;6.592;2022-08-03T07:43:13;12.63;;;3.58;;
30127;SDS011;16942;53.196;6.592;2022-08-03T07:45:39;13.32;;;3.72;;
30127;SDS011;16942;53.196;6.592;2022-08-03T07:48:05;10.88;;;3.33;;
30127;SDS011;16942;53.196;6.592;2022-08-03T07:50:31;21.27;;;3.90;;
30127;SDS011;16942;53.196;6.592;2022-08-03T07:52:57;12.80;;;3.20;;
30127;SDS011;16942;53.196;6.592;2022-08-03T07:55:24;18.95;;;3.20;;
30127;SDS011;16942;53.196;6.592;2022-08-03T07:58:03;11.13;;;3.08;;
30127;SDS011;16942;53.196;6.592;2022-08-03T08:00:30;12.63;;;3.38;;
30127;SDS011;16942;53.196;6.592;2022-08-03T08:02:56;12.60;;;3.17;;
30127;SDS011;16942;53.196;6.592;2022-08-03T08:05:22;11.20;;;3.25;;
30127;SDS011;16942;53.196;6.592;2022-08-03T08:07:48;7.70;;;2.70;;
30127;SDS011;16942;53.196;6.592;2022-08-03T08:10:14;12.43;;;3.42;;
30127;SDS011;16942;53.196;6.592;2022-08-03T08:12:41;14.13;;;3.47;;
30127;SDS011;16942;53.196;6.592;2022-08-03T08:15:07;19.02;;;3.47;;
30127;SDS011;16942;53.196;6.592;2022-08-03T08:17:40;17.90;;;3.67;;
30127;SDS011;16942;53.196;6.592;2022-08-03T08:20:07;11.15;;;3.42;;
30127;SDS011;16942;53.196;6.592;2022-08-03T08:22:33;11.20;;;3.67;;
30127;SDS011;16942;53.196;6.592;2022-08-03T08:24:59;14.70;;;3.85;;
30127;SDS011;16942;53.196;6.592;2022-08-03T08:27:25;15.10;;;4.10;;
30127;SDS011;16942;53.196;6.592;2022-08-03T08:29:51;10.93;;;3.92;;
30127;SDS011;16942;53.196;6.592;2022-08-03T08:32:17;13.25;;;3.50;;
30127;SDS011;16942;53.196;6.592;2022-08-03T08:34:43;11.55;;;3.30;;
30127;SDS011;16942;53.196;6.592;2022-08-03T08:37:09;10.82;;;3.90;;
30127;SDS011;16942;53.196;6.592;2022-08-03T08:39:35;10.05;;;2.70;;
30127;SDS011;16942;53.196;6.592;2022-08-03T08:42:01;11.80;;;3.55;;
30127;SDS011;16942;53.196;6.592;2022-08-03T08:44:28;11.40;;;3.10;;
30127;SDS011;16942;53.196;6.592;2022-08-03T08:46:54;7.88;;;2.63;;
30127;SDS011;16942;53.196;6.592;2022-08-03T08:49:21;12.35;;;4.82;;
30127;SDS011;16942;53.196;6.592;2022-08-03T08:51:48;12.25;;;3.30;;
30127;SDS011;16942;53.196;6.592;2022-08-03T08:54:17;10.27;;;3.22;;
30127;SDS011;16942;53.196;6.592;2022-08-03T08:56:45;10.88;;;3.25;;
30127;SDS011;16942;53.196;6.592;2022-08-03T08:59:11;10.98;;;3.78;;
30127;SDS011;16942;53.196;6.592;2022-08-03T09:01:38;17.98;;;3.50;;
30127;SDS011;16942;53.196;6.592;2022-08-03T09:04:05;15.30;;;3.40;;
30127;SDS011;16942;53.196;6.592;2022-08-03T09:06:31;12.23;;;3.67;;
30127;SDS011;16942;53.196;6.592;2022-08-03T09:08:57;13.77;;;3.78;;
30127;SDS011;16942;53.196;6.592;2022-08-03T09:11:23;10.63;;;3.50;;
30127;SDS011;16942;53.196;6.592;2022-08-03T09:13:49;7.85;;;3.60;;
30127;SDS011;16942;53.196;6.592;2022-08-03T09:16:17;14.25;;;3.40;;
30127;SDS011;16942;53.196;6.592;2022-08-03T09:18:47;11.15;;;3.28;;
30127;SDS011;16942;53.196;6.592;2022-08-03T09:21:26;15.05;;;3.97;;
30127;SDS011;16942;53.196;6.592;2022-08-03T09:23:56;9.27;;;3.20;;
30127;SDS011;16942;53.196;6.592;2022-08-03T09:26:23;11.30;;;3.05;;
30127;SDS011;16942;53.196;6.592;2022-08-03T09:29:06;9.50;;;3.47;;
30127;SDS011;16942;53.196;6.592;2022-08-03T09:31:39;10.10;;;3.63;;
30127;SDS011;16942;53.196;6.592;2022-08-03T09:34:06;13.10;;;4.03;;
30127;SDS011;16942;53.196;6.592;2022-08-03T09:36:37;10.70;;;4.93;;
30127;SDS011;16942;53.196;6.592;2022-08-03T09:39:04;10.70;;;4.32;;
30127;SDS011;16942;53.196;6.592;2022-08-03T09:41:30;8.35;;;3.47;;
30127;SDS011;16942;53.196;6.592;2022-08-03T09:43:57;10.60;;;3.88;;
30127;SDS011;16942;53.196;6.592;2022-08-03T09:46:23;10.60;;;3.72;;
30127;SDS011;16942;53.196;6.592;2022-08-03T09:48:49;10.63;;;3.65;;
30127;SDS011;16942;53.196;6.592;2022-08-03T09:51:15;18.20;;;4.25;;
30127;SDS011;16942;53.196;6.592;2022-08-03T09:53:44;8.32;;;3.42;;
30127;SDS011;16942;53.196;6.592;2022-08-03T09:56:10;12.35;;;3.65;;
30127;SDS011;16942;53.196;6.592;2022-08-03T09:58:46;15.52;;;4.43;;
30127;SDS011;16942;53.196;6.592;2022-08-03T10:01:12;12.75;;;4.35;;
30127;SDS011;16942;53.196;6.592;2022-08-03T10:03:38;13.52;;;3.97;;
30127;SDS011;16942;53.196;6.592;2022-08-03T10:06:15;13.02;;;3.70;;
30127;SDS011;16942;53.196;6.592;2022-08-03T10:08:43;12.18;;;3.75;;
30127;SDS011;16942;53.196;6.592;2022-08-03T10:11:09;17.40;;;3.83;;
30127;SDS011;16942;53.196;6.592;2022-08-03T10:13:35;14.48;;;3.60;;
30127;SDS011;16942;53.196;6.592;2022-08-03T10:16:02;7.90;;;3.78;;
30127;SDS011;16942;53.196;6.592;2022-08-03T10:18:30;13.27;;;3.58;;
30127;SDS011;16942;53.196;6.592;2022-08-03T10:21:03;9.43;;;3.53;;
30127;SDS011;16942;53.196;6.592;2022-08-03T10:23:32;10.45;;;3.33;;
30127;SDS011;16942;53.196;6.592;2022-08-03T10:26:00;18.00;;;4.00;;
30127;SDS011;16942;53.196;6.592;2022-08-03T10:28:27;14.25;;;3.95;;
30127;SDS011;16942;53.196;6.592;2022-08-03T10:30:57;13.70;;;3.22;;
30127;SDS011;16942;53.196;6.592;2022-08-03T10:33:23;9.60;;;3.28;;
30127;SDS011;16942;53.196;6.592;2022-08-03T10:35:53;11.77;;;3.97;;
30127;SDS011;16942;53.196;6.592;2022-08-03T10:38:23;11.13;;;3.38;;
30127;SDS011;16942;53.196;6.592;2022-08-03T10:40:52;15.23;;;3.47;;
30127;SDS011;16942;53.196;6.592;2022-08-03T10:43:25;9.88;;;3.50;;
30127;SDS011;16942;53.196;6.592;2022-08-03T10:45:52;12.15;;;3.70;;
30127;SDS011;16942;53.196;6.592;2022-08-03T10:48:18;14.20;;;3.22;;
30127;SDS011;16942;53.196;6.592;2022-08-03T10:50:45;14.30;;;3.38;;
30127;SDS011;16942;53.196;6.592;2022-08-03T10:53:13;8.25;;;3.35;;
30127;SDS011;16942;53.196;6.592;2022-08-03T10:55:40;14.43;;;3.60;;
30127;SDS011;16942;53.196;6.592;2022-08-03T11:03:29;15.70;;;3.53;;
30127;SDS011;16942;53.196;6.592;2022-08-03T11:06:14;16.38;;;3.88;;
30127;SDS011;16942;53.196;6.592;2022-08-03T11:08:44;18.00;;;3.67;;
30127;SDS011;16942;53.196;6.592;2022-08-03T11:13:59;16.08;;;4.00;;
30127;SDS011;16942;53.196;6.592;2022-08-03T11:16:27;14.27;;;3.80;;
30127;SDS011;16942;53.196;6.592;2022-08-03T11:19:04;15.25;;;3.90;;
30127;SDS011;16942;53.196;6.592;2022-08-03T11:21:51;15.35;;;4.75;;
30127;SDS011;16942;53.196;6.592;2022-08-03T11:27:47;15.85;;;3.80;;
30127;SDS011;16942;53.196;6.592;2022-08-03T11:29:55;14.95;;;3.92;;
30127;SDS011;16942;53.196;6.592;2022-08-03T11:35:20;17.77;;;4.40;;
30127;SDS011;16942;53.196;6.592;2022-08-03T11:43:03;16.98;;;4.25;;
30127;SDS011;16942;53.196;6.592;2022-08-03T11:45:30;9.98;;;3.45;;
30127;SDS011;16942;53.196;6.592;2022-08-03T11:47:56;12.15;;;4.00;;
30127;SDS011;16942;53.196;6.592;2022-08-03T11:50:23;13.65;;;4.30;;
30127;SDS011;16942;53.196;6.592;2022-08-03T11:52:49;17.83;;;3.95;;
30127;SDS011;16942;53.196;6.592;2022-08-03T11:55:18;17.88;;;4.15;;
30127;SDS011;16942;53.196;6.592;2022-08-03T11:57:46;21.75;;;5.05;;
30127;SDS011;16942;53.196;6.592;2022-08-03T12:00:20;24.35;;;4.95;;
30127;SDS011;16942;53.196;6.592;2022-08-03T12:02:53;20.15;;;5.47;;
30127;SDS011;16942;53.196;6.592;2022-08-03T12:05:19;14.65;;;4.65;;
30127;SDS011;16942;53.196;6.592;2022-08-03T12:07:45;16.30;;;4.60;;
30127;SDS011;16942;53.196;6.592;2022-08-03T12:10:12;18.33;;;4.60;;
30127;SDS011;16942;53.196;6.592;2022-08-03T12:12:38;21.33;;;4.50;;
30127;SDS011;16942;53.196;6.592;2022-08-03T12:15:05;23.10;;;4.80;;
30127;SDS011;16942;53.196;6.592;2022-08-03T12:17:32;16.83;;;4.03;;
30127;SDS011;16942;53.196;6.592;2022-08-03T12:19:59;13.43;;;3.60;;
30127;SDS011;16942;53.196;6.592;2022-08-03T12:22:35;15.52;;;4.28;;
30127;SDS011;16942;53.196;6.592;2022-08-03T12:25:08;17.40;;;4.43;;
30127;SDS011;16942;53.196;6.592;2022-08-03T12:27:34;17.10;;;3.90;;
30127;SDS011;16942;53.196;6.592;2022-08-03T12:30:01;20.98;;;4.10;;
30127;SDS011;16942;53.196;6.592;2022-08-03T12:32:27;15.77;;;3.85;;
30127;SDS011;16942;53.196;6.592;2022-08-03T12:34:54;24.33;;;5.43;;
30127;SDS011;16942;53.196;6.592;2022-08-03T12:37:25;21.00;;;4.97;;
30127;SDS011;16942;53.196;6.592;2022-08-03T12:39:51;16.02;;;4.63;;
30127;SDS011;16942;53.196;6.592;2022-08-03T12:42:18;16.02;;;3.90;;
30127;SDS011;16942;53.196;6.592;2022-08-03T12:44:44;20.67;;;4.95;;
30127;SDS011;16942;53.196;6.592;2022-08-03T12:47:12;19.00;;;4.25;;
30127;SDS011;16942;53.196;6.592;2022-08-03T12:49:43;11.90;;;3.67;;
30127;SDS011;16942;53.196;6.592;2022-08-03T12:52:09;17.98;;;3.78;;
30127;SDS011;16942;53.196;6.592;2022-08-03T12:54:35;14.20;;;3.53;;
30127;SDS011;16942;53.196;6.592;2022-08-03T12:57:06;18.77;;;4.40;;
30127;SDS011;16942;53.196;6.592;2022-08-03T12:59:33;14.25;;;4.18;;
30127;SDS011;16942;53.196;6.592;2022-08-03T13:01:59;17.17;;;4.30;;
30127;SDS011;16942;53.196;6.592;2022-08-03T13:04:26;19.35;;;4.18;;
30127;SDS011;16942;53.196;6.592;2022-08-03T13:06:56;17.63;;;4.07;;
30127;SDS011;16942;53.196;6.592;2022-08-03T13:09:22;19.77;;;5.28;;
30127;SDS011;16942;53.196;6.592;2022-08-03T13:12:03;19.73;;;4.50;;
30127;SDS011;16942;53.196;6.592;2022-08-03T13:14:29;16.60;;;4.65;;
30127;SDS011;16942;53.196;6.592;2022-08-03T13:16:55;12.73;;;4.82;;
30127;SDS011;16942;53.196;6.592;2022-08-03T13:19:21;21.65;;;5.65;;
30127;SDS011;16942;53.196;6.592;2022-08-03T13:21:47;18.95;;;5.53;;
30127;SDS011;16942;53.196;6.592;2022-08-03T13:24:14;13.80;;;4.88;;
30127;SDS011;16942;53.196;6.592;2022-08-03T13:26:40;18.27;;;5.15;;
30127;SDS011;16942;53.196;6.592;2022-08-03T13:29:06;22.35;;;5.25;;
30127;SDS011;16942;53.196;6.592;2022-08-03T13:31:32;15.98;;;5.57;;
30127;SDS011;16942;53.196;6.592;2022-08-03T13:33:57;18.30;;;5.78;;
30127;SDS011;16942;53.196;6.592;2022-08-03T13:36:23;23.35;;;5.63;;
30127;SDS011;16942;53.196;6.592;2022-08-03T13:38:50;23.35;;;5.80;;
30127;SDS011;16942;53.196;6.592;2022-08-03T13:41:16;14.57;;;5.18;;
30127;SDS011;16942;53.196;6.592;2022-08-03T13:43:41;18.38;;;5.32;;
30127;SDS011;16942;53.196;6.592;2022-08-03T13:46:07;15.00;;;5.10;;
30127;SDS011;16942;53.196;6.592;2022-08-03T13:48:33;12.35;;;5.32;;
30127;SDS011;16942;53.196;6.592;2022-08-03T13:50:59;12.00;;;4.68;;
30127;SDS011;16942;53.196;6.592;2022-08-03T13:53:25;15.30;;;4.47;;
30127;SDS011;16942;53.196;6.592;2022-08-03T13:55:51;20.17;;;5.90;;
30127;SDS011;16942;53.196;6.592;2022-08-03T13:58:17;18.08;;;5.40;;
30127;SDS011;16942;53.196;6.592;2022-08-03T14:00:43;14.02;;;4.82;;
30127;SDS011;16942;53.196;6.592;2022-08-03T14:03:09;16.30;;;5.60;;
30127;SDS011;16942;53.196;6.592;2022-08-03T14:05:35;22.33;;;5.65;;
30127;SDS011;16942;53.196;6.592;2022-08-03T14:08:03;14.65;;;5.00;;
30127;SDS011;16942;53.196;6.592;2022-08-03T14:10:37;12.32;;;5.65;;
30127;SDS011;16942;53.196;6.592;2022-08-03T14:13:03;10.98;;;5.10;;
30127;SDS011;16942;53.196;6.592;2022-08-03T14:15:29;16.50;;;5.18;;
30127;SDS011;16942;53.196;6.592;2022-08-03T14:17:56;16.00;;;5.35;;
30127;SDS011;16942;53.196;6.592;2022-08-03T14:20:22;15.40;;;5.07;;
30127;SDS011;16942;53.196;6.592;2022-08-03T14:22:48;17.08;;;4.97;;
30127;SDS011;16942;53.196;6.592;2022-08-03T14:25:14;13.73;;;5.65;;
30127;SDS011;16942;53.196;6.592;2022-08-03T14:27:40;16.75;;;5.93;;
30127;SDS011;16942;53.196;6.592;2022-08-03T14:30:06;8.30;;;4.60;;
30127;SDS011;16942;53.196;6.592;2022-08-03T14:32:32;20.80;;;5.22;;
30127;SDS011;16942;53.196;6.592;2022-08-03T14:34:59;16.70;;;5.10;;
30127;SDS011;16942;53.196;6.592;2022-08-03T14:37:24;13.05;;;4.80;;
30127;SDS011;16942;53.196;6.592;2022-08-03T14:39:50;14.75;;;5.70;;
30127;SDS011;16942;53.196;6.592;2022-08-03T14:42:16;17.88;;;5.00;;
30127;SDS011;16942;53.196;6.592;2022-08-03T14:44:44;14.00;;;5.30;;
30127;SDS011;16942;53.196;6.592;2022-08-03T14:47:10;11.50;;;4.78;;
30127;SDS011;16942;53.196;6.592;2022-08-03T14:49:36;15.27;;;5.47;;
30127;SDS011;16942;53.196;6.592;2022-08-03T14:52:02;16.70;;;5.28;;
30127;SDS011;16942;53.196;6.592;2022-08-03T14:54:28;12.60;;;5.20;;
30127;SDS011;16942;53.196;6.592;2022-08-03T14:56:55;18.70;;;5.00;;
30127;SDS011;16942;53.196;6.592;2022-08-03T14:59:21;13.25;;;5.38;;
30127;SDS011;16942;53.196;6.592;2022-08-03T15:01:47;18.35;;;5.53;;
30127;SDS011;16942;53.196;6.592;2022-08-03T15:04:13;11.23;;;4.75;;
30127;SDS011;16942;53.196;6.592;2022-08-03T15:06:39;14.52;;;5.32;;
30127;SDS011;16942;53.196;6.592;2022-08-03T15:09:05;10.75;;;4.10;;
30127;SDS011;16942;53.196;6.592;2022-08-03T15:11:31;16.65;;;4.72;;
30127;SDS011;16942;53.196;6.592;2022-08-03T15:13:57;8.50;;;4.50;;
30127;SDS011;16942;53.196;6.592;2022-08-03T15:16:24;18.98;;;5.10;;
30127;SDS011;16942;53.196;6.592;2022-08-03T15:18:50;11.77;;;4.75;;